Time;durP1;ratioP1;P1;durP2;ratioP2;P2;SDS_P1;SDS_P2;PMS_P1;PMS_P2;Temp;Humidity;BMP_temperature;BMP_pressure;BME280_temperature;BME280_humidity;BME280_pressure;Samples;Min_cycle;Max_cycle;Signal;HPM_P1;HPM_P2
2020/12/31 00:01:58;;;;;;;0.20;0.20;;;;;;;;;;5020310;28;20205;-72
2020/12/31 00:04:24;;;;;;;0.20;0.20;;;;;;;;;;5022800;28;20212;-72
2020/12/31 00:06:51;;;;;;;0.20;0.20;;;;;;;;;;5021676;28;20240;-73
2020/12/31 00:09:17;;;;;;;0.20;0.20;;;;;;;;;;5022174;28;20486;-72
2020/12/31 00:11:43;;;;;;;0.20;0.20;;;;;;;;;;5023305;28;20213;-73
2020/12/31 00:14:10;;;;;;;0.20;0.20;;;;;;;;;;5017209;28;20204;-72
2020/12/31 00:16:37;;;;;;;0.20;0.20;;;;;;;;;;5005725;28;20539;-72
2020/12/31 00:19:04;;;;;;;0.20;0.20;;;;;;;;;;5017368;28;20205;-72
2020/12/31 00:21:31;;;;;;;2.20;2.10;;;;;;;;;;5007998;28;20205;-73
2020/12/31 00:23:57;;;;;;;0.60;0.60;;;;;;;;;;5006015;28;20512;-72
2020/12/31 00:26:24;;;;;;;0.20;0.20;;;;;;;;;;5008968;28;20201;-73
2020/12/31 00:28:50;;;;;;;0.20;0.20;;;;;;;;;;5026461;28;20244;-72
2020/12/31 00:31:16;;;;;;;0.20;0.20;;;;;;;;;;5004899;28;20221;-72
2020/12/31 00:33:44;;;;;;;0.20;0.20;;;;;;;;;;5006120;28;20234;-72
2020/12/31 00:36:10;;;;;;;0.20;0.20;;;;;;;;;;5009563;28;20205;-72
2020/12/31 00:38:37;;;;;;;0.20;0.20;;;;;;;;;;5024857;28;20540;-72
2020/12/31 00:41:03;;;;;;;0.30;0.30;;;;;;;;;;5022647;28;20197;-72
2020/12/31 00:43:30;;;;;;;0.20;0.20;;;;;;;;;;5008202;28;20209;-72
2020/12/31 00:45:56;;;;;;;0.20;0.20;;;;;;;;;;5009305;28;20462;-73
2020/12/31 00:48:22;;;;;;;0.20;0.20;;;;;;;;;;5008572;28;20201;-73
2020/12/31 00:50:50;;;;;;;0.27;0.27;;;;;;;;;;5022513;28;20289;-73
2020/12/31 00:53:16;;;;;;;0.27;0.27;;;;;;;;;;5010041;28;20209;-72
2020/12/31 00:55:43;;;;;;;0.20;0.20;;;;;;;;;;5024905;28;20248;-72
2020/12/31 00:58:09;;;;;;;0.20;0.20;;;;;;;;;;5002953;28;20273;-72
2020/12/31 01:00:36;;;;;;;0.27;0.27;;;;;;;;;;5008929;28;20312;-72
2020/12/31 01:03:03;;;;;;;0.20;0.20;;;;;;;;;;5026067;28;20225;-72
2020/12/31 01:05:30;;;;;;;0.20;0.20;;;;;;;;;;5024535;28;20237;-72
2020/12/31 01:07:57;;;;;;;0.20;0.20;;;;;;;;;;5007981;28;20197;-72
2020/12/31 01:10:24;;;;;;;0.20;0.20;;;;;;;;;;5022416;28;20221;-73
2020/12/31 01:12:50;;;;;;;0.30;0.30;;;;;;;;;;5007377;28;20201;-72
2020/12/31 01:15:17;;;;;;;0.30;0.30;;;;;;;;;;5022950;28;20515;-73
2020/12/31 01:17:43;;;;;;;0.30;0.30;;;;;;;;;;5008241;28;20559;-72
2020/12/31 01:20:10;;;;;;;0.20;0.20;;;;;;;;;;5006827;28;20197;-73
2020/12/31 01:22:36;;;;;;;0.20;0.20;;;;;;;;;;5001588;28;20201;-72
2020/12/31 01:25:04;;;;;;;0.20;0.20;;;;;;;;;;5006248;28;20198;-73
2020/12/31 01:27:31;;;;;;;0.30;0.30;;;;;;;;;;5008018;28;20209;-72
2020/12/31 01:29:57;;;;;;;0.20;0.20;;;;;;;;;;5020620;28;20308;-72
2020/12/31 01:32:24;;;;;;;0.20;0.20;;;;;;;;;;5021994;28;20201;-72
2020/12/31 01:34:51;;;;;;;0.20;0.20;;;;;;;;;;5022047;28;20277;-72
2020/12/31 01:37:18;;;;;;;0.20;0.20;;;;;;;;;;5022372;28;20442;-73
2020/12/31 01:39:45;;;;;;;0.20;0.20;;;;;;;;;;5040703;28;20202;-72
2020/12/31 01:42:12;;;;;;;0.20;0.20;;;;;;;;;;5006908;28;20400;-73
2020/12/31 01:44:38;;;;;;;0.20;0.20;;;;;;;;;;5024346;28;20481;-73
2020/12/31 01:47:05;;;;;;;0.40;0.40;;;;;;;;;;5025454;28;20269;-73
2020/12/31 01:49:32;;;;;;;0.20;0.20;;;;;;;;;;5023384;28;20435;-72
2020/12/31 01:51:58;;;;;;;0.20;0.20;;;;;;;;;;5005069;28;20202;-73
2020/12/31 01:54:25;;;;;;;0.20;0.20;;;;;;;;;;5022174;28;20368;-73
2020/12/31 01:56:54;;;;;;;0.30;0.30;;;;;;;;;;5004152;28;20472;-73
2020/12/31 01:59:21;;;;;;;1.70;1.60;;;;;;;;;;5022948;28;20201;-72
2020/12/31 02:01:48;;;;;;;2.10;2.00;;;;;;;;;;5023351;28;20205;-72
2020/12/31 02:04:14;;;;;;;0.27;0.27;;;;;;;;;;5021127;28;20201;-72
2020/12/31 02:06:40;;;;;;;0.20;0.20;;;;;;;;;;5021618;28;20430;-72
2020/12/31 02:09:07;;;;;;;0.20;0.20;;;;;;;;;;5023696;28;20528;-72
2020/12/31 02:11:33;;;;;;;0.30;0.30;;;;;;;;;;5004791;28;20220;-72
2020/12/31 02:14:00;;;;;;;0.20;0.20;;;;;;;;;;5023831;28;20201;-72
2020/12/31 02:16:28;;;;;;;0.20;0.20;;;;;;;;;;5006462;28;20225;-72
2020/12/31 02:18:55;;;;;;;0.30;0.30;;;;;;;;;;5023094;28;20228;-72
2020/12/31 02:21:23;;;;;;;0.20;0.20;;;;;;;;;;5022739;28;20201;-73
2020/12/31 02:23:50;;;;;;;0.20;0.20;;;;;;;;;;5021596;28;20205;-72
2020/12/31 02:26:17;;;;;;;0.20;0.20;;;;;;;;;;5003033;28;20213;-73
2020/12/31 02:28:43;;;;;;;0.20;0.20;;;;;;;;;;5021244;28;20201;-72
2020/12/31 02:31:10;;;;;;;0.30;0.30;;;;;;;;;;5004334;28;20334;-73
2020/12/31 02:33:37;;;;;;;0.30;0.30;;;;;;;;;;5006171;28;20201;-73
2020/12/31 02:36:03;;;;;;;0.20;0.20;;;;;;;;;;5020470;28;20209;-72
2020/12/31 02:38:29;;;;;;;4.57;4.33;;;;;;;;;;5024653;28;20212;-73
2020/12/31 02:40:57;;;;;;;0.20;0.20;;;;;;;;;;5021418;28;20231;-72
2020/12/31 02:43:23;;;;;;;0.30;0.30;;;;;;;;;;5003504;28;20245;-73
2020/12/31 02:45:50;;;;;;;0.20;0.20;;;;;;;;;;5019268;28;20228;-72
2020/12/31 02:48:15;;;;;;;0.23;0.23;;;;;;;;;;5023855;28;20434;-72
2020/12/31 02:50:42;;;;;;;0.30;0.30;;;;;;;;;;5023630;28;20248;-72
2020/12/31 02:53:08;;;;;;;0.27;0.27;;;;;;;;;;5022191;28;20535;-72
2020/12/31 02:55:35;;;;;;;0.37;0.37;;;;;;;;;;5021067;28;20308;-72
2020/12/31 02:58:02;;;;;;;0.20;0.20;;;;;;;;;;5002519;28;20202;-72
2020/12/31 03:00:28;;;;;;;0.20;0.20;;;;;;;;;;5006111;28;20201;-72
2020/12/31 03:02:55;;;;;;;0.20;0.20;;;;;;;;;;5024405;28;20480;-72
2020/12/31 03:05:21;;;;;;;0.20;0.20;;;;;;;;;;5020310;28;20274;-72
2020/12/31 03:07:48;;;;;;;0.20;0.20;;;;;;;;;;5021952;28;20240;-72
2020/12/31 03:10:15;;;;;;;0.20;0.20;;;;;;;;;;5020425;28;20225;-73
2020/12/31 03:12:41;;;;;;;2.93;2.83;;;;;;;;;;5003350;28;20213;-72
2020/12/31 03:15:10;;;;;;;0.20;0.20;;;;;;;;;;5020827;28;20216;-73
2020/12/31 03:17:36;;;;;;;0.30;0.30;;;;;;;;;;5022698;28;20231;-73
2020/12/31 03:20:03;;;;;;;0.20;0.20;;;;;;;;;;5000844;28;20406;-72
2020/12/31 03:22:29;;;;;;;0.30;0.30;;;;;;;;;;5023338;28;20315;-72
2020/12/31 03:24:56;;;;;;;0.20;0.20;;;;;;;;;;5020623;28;20201;-72
2020/12/31 03:27:22;;;;;;;0.30;0.30;;;;;;;;;;5023711;28;20264;-73
2020/12/31 03:29:49;;;;;;;0.20;0.20;;;;;;;;;;5003330;28;20249;-73
2020/12/31 03:32:16;;;;;;;0.20;0.20;;;;;;;;;;5003409;28;20469;-72
2020/12/31 03:34:42;;;;;;;0.20;0.20;;;;;;;;;;5023580;28;20233;-73
2020/12/31 03:37:09;;;;;;;0.30;0.30;;;;;;;;;;5001950;28;20225;-72
2020/12/31 03:39:35;;;;;;;0.30;0.30;;;;;;;;;;5006191;28;20272;-72
2020/12/31 03:42:02;;;;;;;0.30;0.30;;;;;;;;;;5022442;28;20509;-73
2020/12/31 03:44:28;;;;;;;0.20;0.20;;;;;;;;;;5020308;28;20253;-72
2020/12/31 03:46:55;;;;;;;0.60;0.60;;;;;;;;;;5022235;28;20252;-72
2020/12/31 03:49:22;;;;;;;0.30;0.30;;;;;;;;;;5020774;28;20204;-73
2020/12/31 03:51:49;;;;;;;1.43;1.43;;;;;;;;;;5001527;28;20217;-72
2020/12/31 03:54:15;;;;;;;0.23;0.23;;;;;;;;;;5019091;28;20604;-72
2020/12/31 03:56:42;;;;;;;0.30;0.30;;;;;;;;;;5001462;28;20517;-72
2020/12/31 03:59:08;;;;;;;0.20;0.20;;;;;;;;;;5005417;28;20197;-72
2020/12/31 04:01:35;;;;;;;0.23;0.23;;;;;;;;;;5001686;28;20225;-73
2020/12/31 04:04:01;;;;;;;0.20;0.20;;;;;;;;;;5036213;28;20201;-73
2020/12/31 04:06:29;;;;;;;1.07;1.07;;;;;;;;;;5019992;28;20204;-73
2020/12/31 04:08:55;;;;;;;0.20;0.20;;;;;;;;;;5022257;28;20233;-72
2020/12/31 04:11:22;;;;;;;0.20;0.20;;;;;;;;;;5012746;28;20225;-72
2020/12/31 04:13:49;;;;;;;10.20;9.57;;;;;;;;;;5021072;28;20220;-73
2020/12/31 04:16:15;;;;;;;0.20;0.20;;;;;;;;;;5001575;28;20420;-73
2020/12/31 04:18:41;;;;;;;0.20;0.20;;;;;;;;;;5005046;28;20515;-73
2020/12/31 04:21:08;;;;;;;0.20;0.20;;;;;;;;;;5022040;28;20197;-73
2020/12/31 04:23:35;;;;;;;0.20;0.20;;;;;;;;;;5020188;28;20272;-73
2020/12/31 04:26:02;;;;;;;0.20;0.20;;;;;;;;;;5004436;28;20201;-73
2020/12/31 04:28:28;;;;;;;0.30;0.30;;;;;;;;;;5019849;28;20229;-73
2020/12/31 04:30:55;;;;;;;0.20;0.20;;;;;;;;;;5001153;28;20233;-72
2020/12/31 04:33:21;;;;;;;0.37;0.37;;;;;;;;;;5004122;28;20206;-72
2020/12/31 04:35:48;;;;;;;0.20;0.20;;;;;;;;;;5004642;28;20373;-73
2020/12/31 04:38:15;;;;;;;0.20;0.20;;;;;;;;;;5001809;28;20193;-73
2020/12/31 04:40:45;;;;;;;0.20;0.20;;;;;;;;;;5019727;28;20198;-73
2020/12/31 04:43:12;;;;;;;0.20;0.20;;;;;;;;;;5017111;28;20252;-73
2020/12/31 04:45:40;;;;;;;0.20;0.20;;;;;;;;;;5019553;28;20408;-73
2020/12/31 04:48:07;;;;;;;0.40;0.40;;;;;;;;;;5021292;28;20237;-73
2020/12/31 04:50:35;;;;;;;2.27;2.20;;;;;;;;;;5021115;28;20528;-72
2020/12/31 04:53:04;;;;;;;0.20;0.20;;;;;;;;;;5020432;28;20205;-72
2020/12/31 04:55:32;;;;;;;0.20;0.20;;;;;;;;;;5021919;28;20276;-72
2020/12/31 04:58:00;;;;;;;0.27;0.27;;;;;;;;;;5025223;28;20232;-72
2020/12/31 05:00:26;;;;;;;0.20;0.20;;;;;;;;;;5008348;28;20201;-72
2020/12/31 05:02:53;;;;;;;0.20;0.20;;;;;;;;;;5005304;28;20205;-73
2020/12/31 05:05:20;;;;;;;0.20;0.20;;;;;;;;;;5008903;28;20205;-73
2020/12/31 05:07:48;;;;;;;0.30;0.30;;;;;;;;;;5003100;28;20201;-72
2020/12/31 05:10:15;;;;;;;0.20;0.20;;;;;;;;;;5025006;28;20248;-73
2020/12/31 05:12:41;;;;;;;0.30;0.30;;;;;;;;;;5008145;28;20224;-73
2020/12/31 05:15:09;;;;;;;0.20;0.20;;;;;;;;;;5025533;28;20401;-73
2020/12/31 05:17:35;;;;;;;0.20;0.20;;;;;;;;;;5006000;28;20478;-72
2020/12/31 05:20:12;;;;;;;0.20;0.20;;;;;;;;;;5022276;28;20205;-72
2020/12/31 05:22:39;;;;;;;0.20;0.20;;;;;;;;;;5026126;28;20440;-72
2020/12/31 05:25:05;;;;;;;0.37;0.37;;;;;;;;;;5041163;28;20272;-73
2020/12/31 05:27:31;;;;;;;0.20;0.20;;;;;;;;;;5004655;28;20388;-72
2020/12/31 05:30:01;;;;;;;0.20;0.20;;;;;;;;;;5008254;28;20256;-72
2020/12/31 05:32:30;;;;;;;0.20;0.20;;;;;;;;;;5005925;28;20245;-73
2020/12/31 05:34:56;;;;;;;0.30;0.30;;;;;;;;;;5024315;28;20253;-73
2020/12/31 05:37:26;;;;;;;0.20;0.20;;;;;;;;;;5025537;28;20213;-72
2020/12/31 05:39:56;;;;;;;0.20;0.20;;;;;;;;;;5025107;28;20197;-72
2020/12/31 05:42:22;;;;;;;0.20;0.20;;;;;;;;;;5006366;28;20365;-73
2020/12/31 05:45:03;;;;;;;0.20;0.20;;;;;;;;;;5023298;28;20232;-72
2020/12/31 05:47:31;;;;;;;0.20;0.20;;;;;;;;;;5020902;28;20201;-73
2020/12/31 05:49:57;;;;;;;0.20;0.20;;;;;;;;;;5006473;28;20252;-72
2020/12/31 05:52:34;;;;;;;0.20;0.20;;;;;;;;;;5022509;28;20202;-72
2020/12/31 05:55:04;;;;;;;0.20;0.20;;;;;;;;;;5024872;28;20231;-72
2020/12/31 05:57:40;;;;;;;0.20;0.20;;;;;;;;;;5022765;28;20296;-72
2020/12/31 06:00:08;;;;;;;0.20;0.20;;;;;;;;;;5025135;28;20196;-73
2020/12/31 06:02:37;;;;;;;0.20;0.20;;;;;;;;;;5007987;28;20204;-72
2020/12/31 06:05:08;;;;;;;0.20;0.20;;;;;;;;;;5013598;28;20209;-72
2020/12/31 06:07:40;;;;;;;0.20;0.20;;;;;;;;;;5022687;28;20229;-74
2020/12/31 06:10:07;;;;;;;0.20;0.20;;;;;;;;;;5023672;28;20253;-70
2020/12/31 06:12:42;;;;;;;0.20;0.20;;;;;;;;;;5021828;28;20209;-73
2020/12/31 06:15:09;;;;;;;0.20;0.20;;;;;;;;;;5023793;28;20228;-73
2020/12/31 06:17:42;;;;;;;0.20;0.20;;;;;;;;;;5007059;28;20400;-73
2020/12/31 06:20:11;;;;;;;0.30;0.30;;;;;;;;;;5024005;28;20456;-73
2020/12/31 06:22:49;;;;;;;0.30;0.30;;;;;;;;;;5023818;28;20369;-74
2020/12/31 06:25:22;;;;;;;0.20;0.20;;;;;;;;;;5022777;28;20201;-73
2020/12/31 06:27:52;;;;;;;0.20;0.20;;;;;;;;;;5022549;28;20269;-73
2020/12/31 06:30:19;;;;;;;0.60;0.60;;;;;;;;;;5022334;28;20448;-73
2020/12/31 06:32:47;;;;;;;0.20;0.20;;;;;;;;;;5005437;28;20427;-73
2020/12/31 06:35:17;;;;;;;0.20;0.20;;;;;;;;;;5021681;28;20515;-73
2020/12/31 06:37:55;;;;;;;0.20;0.20;;;;;;;;;;5022578;28;20208;-73
2020/12/31 06:40:23;;;;;;;0.20;0.20;;;;;;;;;;5012441;28;20201;-73
2020/12/31 06:43:09;;;;;;;0.20;0.20;;;;;;;;;;5021323;28;20201;-73
2020/12/31 06:45:36;;;;;;;0.23;0.23;;;;;;;;;;5016498;28;20221;-73
2020/12/31 06:48:04;;;;;;;0.20;0.20;;;;;;;;;;5021731;28;20247;-73
2020/12/31 06:50:48;;;;;;;0.27;0.27;;;;;;;;;;5020782;28;20240;-74
2020/12/31 06:53:27;;;;;;;0.20;0.20;;;;;;;;;;5036267;28;20279;-72
2020/12/31 06:55:53;;;;;;;0.30;0.30;;;;;;;;;;5022657;28;20504;-73
2020/12/31 06:58:24;;;;;;;0.20;0.20;;;;;;;;;;5006932;28;20484;-73
2020/12/31 07:00:50;;;;;;;0.30;0.30;;;;;;;;;;5018967;28;20204;-73
2020/12/31 07:03:44;;;;;;;0.20;0.20;;;;;;;;;;5011013;28;20209;-72
2020/12/31 07:06:31;;;;;;;0.20;0.20;;;;;;;;;;5038982;28;20205;-73
2020/12/31 07:08:58;;;;;;;0.20;0.20;;;;;;;;;;5019229;28;20272;-73
2020/12/31 07:11:31;;;;;;;0.30;0.30;;;;;;;;;;5004214;28;20591;-73
2020/12/31 07:13:58;;;;;;;0.20;0.20;;;;;;;;;;5018539;28;20236;-73
2020/12/31 07:16:40;;;;;;;1.07;1.03;;;;;;;;;;5021838;28;20534;-72
2020/12/31 07:19:08;;;;;;;0.20;0.20;;;;;;;;;;5016019;28;20273;-72
2020/12/31 07:21:36;;;;;;;0.20;0.20;;;;;;;;;;4997287;28;20220;-73
2020/12/31 07:24:17;;;;;;;0.30;0.30;;;;;;;;;;5024182;28;20409;-73
2020/12/31 07:26:45;;;;;;;0.30;0.30;;;;;;;;;;5019799;28;20498;-72
2020/12/31 07:29:12;;;;;;;0.30;0.30;;;;;;;;;;5022037;28;20201;-72
2020/12/31 07:31:42;;;;;;;0.20;0.20;;;;;;;;;;5006494;28;20237;-72
2020/12/31 07:34:26;;;;;;;0.20;0.20;;;;;;;;;;5022957;28;20476;-72
2020/12/31 07:37:00;;;;;;;0.20;0.20;;;;;;;;;;5023101;28;20205;-70
2020/12/31 07:39:27;;;;;;;0.30;0.30;;;;;;;;;;5022102;28;20271;-71
2020/12/31 07:42:10;;;;;;;0.30;0.30;;;;;;;;;;5020126;28;20201;-71
2020/12/31 07:44:36;;;;;;;0.20;0.20;;;;;;;;;;5014476;28;20528;-71
2020/12/31 07:47:02;;;;;;;0.20;0.20;;;;;;;;;;5007677;28;20260;-72
2020/12/31 07:49:29;;;;;;;0.20;0.20;;;;;;;;;;5017684;28;20297;-72
2020/12/31 07:52:01;;;;;;;0.27;0.27;;;;;;;;;;5001073;28;20248;-72
2020/12/31 07:54:28;;;;;;;0.20;0.20;;;;;;;;;;5020469;28;20206;-71
2020/12/31 07:56:54;;;;;;;0.20;0.20;;;;;;;;;;5022620;28;20292;-71
2020/12/31 07:59:22;;;;;;;0.20;0.20;;;;;;;;;;5003237;28;20501;-71
2020/12/31 08:01:48;;;;;;;0.20;0.20;;;;;;;;;;5016820;28;20197;-71
2020/12/31 08:04:15;;;;;;;0.20;0.20;;;;;;;;;;5019974;28;20496;-71
2020/12/31 08:06:42;;;;;;;0.20;0.20;;;;;;;;;;5006471;28;20208;-75
2020/12/31 08:09:09;;;;;;;0.20;0.20;;;;;;;;;;5004537;28;20208;-70
2020/12/31 08:11:36;;;;;;;0.20;0.20;;;;;;;;;;5016233;28;20221;-69
2020/12/31 08:14:03;;;;;;;0.20;0.20;;;;;;;;;;5016389;28;20437;-73
2020/12/31 08:16:29;;;;;;;0.20;0.20;;;;;;;;;;5019431;28;20315;-72
2020/12/31 08:18:55;;;;;;;0.20;0.20;;;;;;;;;;5019379;28;20316;-69
2020/12/31 08:21:22;;;;;;;0.20;0.20;;;;;;;;;;5020280;28;20228;-71
2020/12/31 08:23:50;;;;;;;0.20;0.20;;;;;;;;;;5021393;28;20285;-72
2020/12/31 08:26:19;;;;;;;0.30;0.30;;;;;;;;;;5022063;28;20284;-70
2020/12/31 08:28:46;;;;;;;0.30;0.30;;;;;;;;;;5027484;28;20404;-71
2020/12/31 08:31:12;;;;;;;0.30;0.30;;;;;;;;;;5005649;28;20228;-72
2020/12/31 08:33:40;;;;;;;0.30;0.30;;;;;;;;;;5008259;28;20340;-74
2020/12/31 08:36:07;;;;;;;0.20;0.20;;;;;;;;;;5026461;28;20231;-71
2020/12/31 08:38:36;;;;;;;0.20;0.20;;;;;;;;;;5018632;28;20216;-71
2020/12/31 08:41:05;;;;;;;0.20;0.20;;;;;;;;;;5024134;28;20243;-72
2020/12/31 08:43:33;;;;;;;0.20;0.20;;;;;;;;;;5026259;28;20201;-71
2020/12/31 08:46:00;;;;;;;0.20;0.20;;;;;;;;;;5018661;28;20230;-69
2020/12/31 08:48:26;;;;;;;0.30;0.30;;;;;;;;;;5004803;28;20225;-70
2020/12/31 08:51:14;;;;;;;0.20;0.20;;;;;;;;;;5026399;28;20524;-70
2020/12/31 08:53:48;;;;;;;0.20;0.20;;;;;;;;;;5020162;28;20205;-70
2020/12/31 08:56:14;;;;;;;0.30;0.30;;;;;;;;;;5041335;28;20508;-70
2020/12/31 08:58:42;;;;;;;0.20;0.20;;;;;;;;;;5025414;28;20216;-71
2020/12/31 09:01:08;;;;;;;0.30;0.30;;;;;;;;;;5008289;28;20228;-71
2020/12/31 09:03:34;;;;;;;0.20;0.20;;;;;;;;;;5026242;28;20260;-71
2020/12/31 09:06:03;;;;;;;0.20;0.20;;;;;;;;;;5025981;28;20209;-71
2020/12/31 09:08:31;;;;;;;0.20;0.20;;;;;;;;;;5023719;28;20197;-71
2020/12/31 09:11:01;;;;;;;0.20;0.20;;;;;;;;;;5019596;28;20527;-70
2020/12/31 09:13:28;;;;;;;0.20;0.20;;;;;;;;;;5022914;28;20229;-70
2020/12/31 09:16:08;;;;;;;0.20;0.20;;;;;;;;;;5008669;28;20237;-70
2020/12/31 09:18:35;;;;;;;0.23;0.23;;;;;;;;;;5022436;28;20208;-70
2020/12/31 09:21:01;;;;;;;0.30;0.30;;;;;;;;;;5018878;28;20204;-70
2020/12/31 09:23:28;;;;;;;0.20;0.20;;;;;;;;;;5022933;28;20334;-71
2020/12/31 09:25:54;;;;;;;0.20;0.20;;;;;;;;;;5007136;28;20201;-71
2020/12/31 09:28:22;;;;;;;0.30;0.30;;;;;;;;;;5008516;28;20205;-71
2020/12/31 09:30:49;;;;;;;0.20;0.20;;;;;;;;;;5018622;28;20225;-71
2020/12/31 09:33:17;;;;;;;0.20;0.20;;;;;;;;;;5007457;28;20228;-72
2020/12/31 09:35:43;;;;;;;0.20;0.20;;;;;;;;;;5024266;28;20253;-70
2020/12/31 09:38:10;;;;;;;0.20;0.20;;;;;;;;;;5022118;28;20208;-70
2020/12/31 09:40:36;;;;;;;0.20;0.20;;;;;;;;;;5023114;28;20236;-72
2020/12/31 09:43:03;;;;;;;0.20;0.20;;;;;;;;;;5023855;28;20212;-72
2020/12/31 09:45:30;;;;;;;0.20;0.20;;;;;;;;;;5022285;28;20217;-71
2020/12/31 09:47:57;;;;;;;0.20;0.20;;;;;;;;;;5022914;28;20197;-72
2020/12/31 09:50:24;;;;;;;0.20;0.20;;;;;;;;;;5016976;28;20539;-73
2020/12/31 09:52:50;;;;;;;0.20;0.20;;;;;;;;;;5025013;28;20358;-73
2020/12/31 09:55:17;;;;;;;0.20;0.20;;;;;;;;;;5019939;28;20224;-70
2020/12/31 09:57:43;;;;;;;0.70;0.70;;;;;;;;;;5013938;28;20205;-71
2020/12/31 10:00:10;;;;;;;0.30;0.30;;;;;;;;;;5006882;28;20525;-70
2020/12/31 10:02:36;;;;;;;0.20;0.20;;;;;;;;;;5013111;28;20202;-72
2020/12/31 10:05:03;;;;;;;0.20;0.20;;;;;;;;;;5023400;28;20198;-71
2020/12/31 10:07:30;;;;;;;0.20;0.20;;;;;;;;;;5022617;28;20224;-71
2020/12/31 10:09:56;;;;;;;0.20;0.20;;;;;;;;;;5016265;28;20209;-72
2020/12/31 10:12:24;;;;;;;0.20;0.20;;;;;;;;;;5022835;28;20201;-71
2020/12/31 10:14:50;;;;;;;0.20;0.20;;;;;;;;;;5003521;28;20513;-70
2020/12/31 10:17:17;;;;;;;0.23;0.23;;;;;;;;;;5006458;28;20212;-71
2020/12/31 10:19:43;;;;;;;0.20;0.20;;;;;;;;;;5019783;28;20550;-70
2020/12/31 10:22:10;;;;;;;0.30;0.30;;;;;;;;;;5020444;28;20193;-70
2020/12/31 10:24:37;;;;;;;0.20;0.20;;;;;;;;;;5023815;28;20236;-70
2020/12/31 10:27:04;;;;;;;0.20;0.20;;;;;;;;;;5021625;28;20236;-71
2020/12/31 10:29:30;;;;;;;0.30;0.30;;;;;;;;;;5023917;28;20197;-72
2020/12/31 10:31:57;;;;;;;0.20;0.20;;;;;;;;;;5020173;28;20225;-72
2020/12/31 10:34:24;;;;;;;0.20;0.20;;;;;;;;;;5023932;28;20237;-72
2020/12/31 10:36:51;;;;;;;0.20;0.20;;;;;;;;;;5006531;28;20232;-72
2020/12/31 10:39:18;;;;;;;0.20;0.20;;;;;;;;;;5017925;28;20233;-72
2020/12/31 10:41:46;;;;;;;0.27;0.27;;;;;;;;;;5002878;28;20366;-72
2020/12/31 10:44:13;;;;;;;0.20;0.20;;;;;;;;;;5016298;28;20256;-72
2020/12/31 10:46:39;;;;;;;0.20;0.20;;;;;;;;;;5003755;28;20206;-71
2020/12/31 10:49:06;;;;;;;0.30;0.30;;;;;;;;;;5005917;28;20211;-74
2020/12/31 10:51:33;;;;;;;0.20;0.20;;;;;;;;;;5023425;28;20284;-72
2020/12/31 10:53:59;;;;;;;0.30;0.30;;;;;;;;;;5023791;28;20205;-72
2020/12/31 10:56:26;;;;;;;0.20;0.20;;;;;;;;;;5003073;28;20374;-74
2020/12/31 10:58:53;;;;;;;0.20;0.20;;;;;;;;;;5002405;28;20212;-72
2020/12/31 11:01:19;;;;;;;0.30;0.30;;;;;;;;;;5021360;28;20201;-71
2020/12/31 11:03:46;;;;;;;0.20;0.20;;;;;;;;;;5006108;28;20527;-72
2020/12/31 11:06:17;;;;;;;0.20;0.20;;;;;;;;;;5004728;28;20209;-71
2020/12/31 11:08:44;;;;;;;0.20;0.20;;;;;;;;;;5023154;28;20449;-71
2020/12/31 11:11:14;;;;;;;0.20;0.20;;;;;;;;;;5005184;28;20220;-71
2020/12/31 11:13:41;;;;;;;0.20;0.20;;;;;;;;;;5021264;28;20238;-72
2020/12/31 11:16:08;;;;;;;0.30;0.30;;;;;;;;;;5021502;28;20230;-74
2020/12/31 11:18:35;;;;;;;0.20;0.20;;;;;;;;;;5023327;28;20212;-70
2020/12/31 11:21:01;;;;;;;0.20;0.20;;;;;;;;;;5001640;28;20205;-70
2020/12/31 11:23:27;;;;;;;0.20;0.20;;;;;;;;;;5020626;28;20531;-69
2020/12/31 11:25:54;;;;;;;0.20;0.20;;;;;;;;;;5022610;28;20214;-72
2020/12/31 11:28:21;;;;;;;0.20;0.20;;;;;;;;;;5013109;28;20389;-73
2020/12/31 11:30:47;;;;;;;0.27;0.27;;;;;;;;;;4994817;28;20343;-71
2020/12/31 11:33:14;;;;;;;0.20;0.20;;;;;;;;;;5020497;28;20504;-74
2020/12/31 11:35:41;;;;;;;0.10;0.10;;;;;;;;;;5004827;28;20233;-75
2020/12/31 11:38:07;;;;;;;0.17;0.17;;;;;;;;;;5015628;28;20200;-76
2020/12/31 11:40:34;;;;;;;0.90;0.90;;;;;;;;;;5022944;28;20194;-74
2020/12/31 11:43:00;;;;;;;0.20;0.20;;;;;;;;;;5017311;28;20205;-74
2020/12/31 11:45:27;;;;;;;0.20;0.20;;;;;;;;;;4998056;28;20410;-73
2020/12/31 11:47:53;;;;;;;0.20;0.20;;;;;;;;;;5002330;28;20281;-74
2020/12/31 11:50:20;;;;;;;0.20;0.20;;;;;;;;;;5037033;28;20536;-72
2020/12/31 11:52:47;;;;;;;0.20;0.20;;;;;;;;;;5004360;28;20243;-75
2020/12/31 11:55:13;;;;;;;0.40;0.40;;;;;;;;;;5022519;28;20202;-78
2020/12/31 11:57:40;;;;;;;0.20;0.20;;;;;;;;;;5003934;28;20198;-75
2020/12/31 12:00:07;;;;;;;0.20;0.20;;;;;;;;;;4999738;28;20201;-75
2020/12/31 12:02:34;;;;;;;0.20;0.20;;;;;;;;;;5005313;28;20197;-73
2020/12/31 12:05:00;;;;;;;0.10;0.10;;;;;;;;;;5006673;28;20500;-71
2020/12/31 12:07:27;;;;;;;0.20;0.20;;;;;;;;;;5024285;28;20197;-75
2020/12/31 12:09:54;;;;;;;2.73;1.70;;;;;;;;;;5024849;28;20205;-73
2020/12/31 12:12:20;;;;;;;0.20;0.20;;;;;;;;;;5023782;28;20252;-74
2020/12/31 12:14:47;;;;;;;0.20;0.20;;;;;;;;;;5006539;28;20485;-74
2020/12/31 12:17:14;;;;;;;0.20;0.20;;;;;;;;;;5005683;28;20452;-70
2020/12/31 12:19:40;;;;;;;0.20;0.20;;;;;;;;;;4999991;28;20279;-73
2020/12/31 12:22:06;;;;;;;0.20;0.20;;;;;;;;;;5027011;28;20201;-70
2020/12/31 12:24:33;;;;;;;0.20;0.20;;;;;;;;;;5008860;28;20296;-71
2020/12/31 12:27:00;;;;;;;0.20;0.20;;;;;;;;;;5023678;28;20394;-69
2020/12/31 12:29:26;;;;;;;0.30;0.30;;;;;;;;;;5006812;28;20508;-70
2020/12/31 12:31:52;;;;;;;0.20;0.20;;;;;;;;;;5041545;28;20233;-69
2020/12/31 12:34:19;;;;;;;0.10;0.10;;;;;;;;;;5023713;28;20236;-68
2020/12/31 12:36:48;;;;;;;0.20;0.20;;;;;;;;;;5009393;28;20472;-74
2020/12/31 12:39:15;;;;;;;0.50;0.50;;;;;;;;;;5026974;28;20205;-74
2020/12/31 12:41:42;;;;;;;0.90;0.90;;;;;;;;;;5026349;28;20387;-76
2020/12/31 12:44:08;;;;;;;0.20;0.20;;;;;;;;;;5025838;28;20369;-74
2020/12/31 12:46:34;;;;;;;0.20;0.20;;;;;;;;;;5022505;28;20494;-73
2020/12/31 12:49:01;;;;;;;0.20;0.20;;;;;;;;;;5025455;28;20213;-71
2020/12/31 12:51:29;;;;;;;0.20;0.20;;;;;;;;;;5020422;28;20263;-72
2020/12/31 12:53:59;;;;;;;0.20;0.20;;;;;;;;;;5024372;28;20240;-73
2020/12/31 12:56:25;;;;;;;0.20;0.20;;;;;;;;;;5026086;28;20206;-77
2020/12/31 12:58:52;;;;;;;0.20;0.20;;;;;;;;;;5025930;28;20450;-76
2020/12/31 13:01:18;;;;;;;0.20;0.20;;;;;;;;;;5005297;28;20204;-76
2020/12/31 13:03:45;;;;;;;0.20;0.20;;;;;;;;;;5025119;28;20201;-75
2020/12/31 13:06:12;;;;;;;0.10;0.10;;;;;;;;;;5007821;28;20247;-71
2020/12/31 13:08:38;;;;;;;0.20;0.20;;;;;;;;;;5016476;28;20197;-74
2020/12/31 13:11:05;;;;;;;0.20;0.20;;;;;;;;;;5005508;28;20319;-73
2020/12/31 13:13:31;;;;;;;0.20;0.20;;;;;;;;;;5025627;28;20244;-74
2020/12/31 13:15:59;;;;;;;0.20;0.20;;;;;;;;;;5025675;28;20269;-71
2020/12/31 13:18:25;;;;;;;0.20;0.20;;;;;;;;;;5001213;28;20231;-71
2020/12/31 13:20:52;;;;;;;0.57;0.50;;;;;;;;;;5004422;28;20233;-73
2020/12/31 13:23:18;;;;;;;0.20;0.20;;;;;;;;;;5022979;28;20250;-76
2020/12/31 13:25:45;;;;;;;0.20;0.20;;;;;;;;;;5003279;28;20252;-73
2020/12/31 13:28:11;;;;;;;0.20;0.20;;;;;;;;;;5007177;28;20193;-74
2020/12/31 13:30:37;;;;;;;0.20;0.20;;;;;;;;;;5024568;28;20221;-72
2020/12/31 13:33:05;;;;;;;0.20;0.20;;;;;;;;;;5009042;28;20216;-74
2020/12/31 13:35:32;;;;;;;0.20;0.20;;;;;;;;;;5007380;28;20201;-75
2020/12/31 13:37:58;;;;;;;0.20;0.20;;;;;;;;;;5014059;28;20198;-72
2020/12/31 13:40:25;;;;;;;0.20;0.20;;;;;;;;;;5023061;28;20197;-75
2020/12/31 13:42:51;;;;;;;0.20;0.20;;;;;;;;;;5015468;28;20201;-73
2020/12/31 13:45:18;;;;;;;0.20;0.20;;;;;;;;;;5021916;28;20479;-71
2020/12/31 13:47:46;;;;;;;0.20;0.20;;;;;;;;;;5017265;28;20248;-71
2020/12/31 13:50:13;;;;;;;0.20;0.20;;;;;;;;;;5024912;28;20244;-75
2020/12/31 13:52:40;;;;;;;0.20;0.20;;;;;;;;;;5023613;28;20454;-73
2020/12/31 13:55:07;;;;;;;0.20;0.20;;;;;;;;;;5023001;28;20204;-77
2020/12/31 13:57:36;;;;;;;0.17;0.17;;;;;;;;;;5006019;28;20513;-79
2020/12/31 14:00:02;;;;;;;0.30;0.30;;;;;;;;;;5024461;28;20232;-76
2020/12/31 14:02:28;;;;;;;0.20;0.20;;;;;;;;;;5007356;28;20497;-77
2020/12/31 14:04:55;;;;;;;0.20;0.20;;;;;;;;;;4997014;28;20212;-78
2020/12/31 14:07:22;;;;;;;0.20;0.20;;;;;;;;;;5009026;28;20198;-76
2020/12/31 14:09:49;;;;;;;0.20;0.20;;;;;;;;;;5006740;28;20527;-77
2020/12/31 14:12:15;;;;;;;0.20;0.20;;;;;;;;;;5025120;28;20228;-78
2020/12/31 14:14:41;;;;;;;0.20;0.20;;;;;;;;;;5006399;28;20288;-77
2020/12/31 14:17:08;;;;;;;0.20;0.20;;;;;;;;;;5016387;28;20205;-77
2020/12/31 14:19:35;;;;;;;0.20;0.20;;;;;;;;;;5004648;28;20441;-77
2020/12/31 14:22:04;;;;;;;0.20;0.20;;;;;;;;;;5039015;28;20224;-77
2020/12/31 14:24:31;;;;;;;0.20;0.20;;;;;;;;;;5021267;28;20242;-70
2020/12/31 14:26:57;;;;;;;0.20;0.20;;;;;;;;;;5020826;28;20491;-69
2020/12/31 14:29:24;;;;;;;0.20;0.20;;;;;;;;;;5005114;28;20244;-71
2020/12/31 14:31:50;;;;;;;0.20;0.20;;;;;;;;;;5021302;28;20224;-69
2020/12/31 14:34:17;;;;;;;0.20;0.20;;;;;;;;;;5005913;28;20209;-76
2020/12/31 14:36:44;;;;;;;0.50;0.50;;;;;;;;;;5022849;28;20251;-78
2020/12/31 14:39:11;;;;;;;0.20;0.20;;;;;;;;;;5023971;28;20259;-76
2020/12/31 14:41:38;;;;;;;0.20;0.20;;;;;;;;;;5022898;28;20279;-74
2020/12/31 14:44:06;;;;;;;0.20;0.20;;;;;;;;;;5022573;28;20201;-75
2020/12/31 14:46:33;;;;;;;0.10;0.10;;;;;;;;;;5001927;28;20249;-77